Airfield :
LOGIN :

Register | Disclaimer

   EN    FR    IT 

 










Legend :    VFR   Marginal VFR   IFR   Intensive IFR   Very Intensive IFR
Visi :
Ceiling :
>= 8 km
>= 3000ft
5 to 8 km
1000 to 3000 ft
1500m to 5 km
500 to 1000 ft
800 to 1500m
200 to 500 ft
< 800m
< 200 ft
Symbols :   Thunderstorms  Fog  Heavy snow  Heavy precipitations  Wind > 20 kt
SIGMETs :     Misc.  Thunderstorms  Icing  Turbulence  Mountain Waves  Volcanic Ashes







- Airport Elevation : 386 ft
- IATA code : QOE


ETNN - Nörvenich Airforce Base

CURRENT METAR :
  • 200841Z 26011KT 8000 -SHRA FEW015 SCT026 BKN040 14/12 Q1010 RESHRA BLU BLU TEMPO GRN

EXPIRED METARs :
  • 200829Z 24011G23KT 4000 -SHRA SCT020 BKN026 14/11 Q1009 GRN BLU TEMPO GRN
  • 200720Z 16010KT 9999 FEW020 SCT040 BKN120 15/11 Q1008 BLU BLU TEMPO GRN
  • 200620Z 15007KT 9999 FEW020 SCT060 BKN120 15/12 Q1008 BLU BLU TEMPO GRN

TAF TAF ETNN
Valid from the 20 at 08:00 until the 20 at 17:00 UTC


200715Z 2008/2017 19010G20KT 8000 NSW SCT020 BKN030 BKN080
TEMPO 2008/2009 23015G25KT 4000 SHRA BKN010TCU
BECMG 2009/2011 24015G25KT 9999 NSW SCT035 BY ETGL
No reported NOTAMs for that airfield.



MET'MAP, your aeronautical weather chart ! - Copyright ORBIFLY December 2007 - Disclaimer

ORBIFLY MET'MAP TEAM :

Programming & Development : Alexandra Zaïnal
Concept & Development : Baudouin d'Aumeries
Co-Development & Prog : Marc-Olivier Méhu
Technical & hardware support : Manuel Goepfert

Contact : metmap@orbifly.com




SOURCES & CREDITS :

   NOAA